Data for 05/26/2009

Time Sea-Level Adjusted Pressure Absolute Pressure Temperature Relative Humidity Dew Point   
(mb) (inHg) (mb) (inHg) (C) (F) (%) (C) (F)
00:05 1019 30.09 849 25.07 9.5 49 62 2.7 36.8
00:10 1019 30.09 849 25.07 9.3 48.7 64 2.7 36.9
00:15 1019 30.09 849 25.07 9.1 48.4 64 2.7 36.9
00:20 1019 30.09 849 25.07 9 48.1 65 2.7 36.8
00:25 1020 30.12 849 25.07 8.9 48.1 65 2.7 36.8
00:30 1019 30.09 849 25.07 8.9 48 65 2.7 36.9
00:35 1020 30.12 849 25.07 8.7 47.7 66 2.7 36.8
00:40 1019 30.09 849 25.07 9 48.3 62 2.1 35.8
00:45 1019 30.09 849 25.07 9.9 49.9 58 2 35.6
00:50 1019 30.09 849 25.07 10.4 50.8 56 2.1 35.7
00:55 1019 30.09 849 25.07 10.7 51.3 54 2 35.5
01:00 1019 30.09 849 25.07 10.9 51.5 55 2.1 35.8
01:05 1019 30.09 849 25.07 10.8 51.4 56 2.3 36.2
01:10 1019 30.09 849 25.07 10.6 51 56 2.3 36.2
01:15 1019 30.09 849 25.07 10.4 50.7 57 2.3 36.2
01:20 1019 30.09 849 25.07 10.3 50.6 57 2.1 35.9
01:25 1019 30.09 849 25.07 10.4 50.6 56 2.1 35.8
01:30 1019 30.09 849 25.07 10.5 51 56 2.1 35.7
01:35 1019 30.09 849 25.07 10.7 51.2 54 1.9 35.4
01:40 1019 30.09 849 25.07 10.9 51.6 54 2 35.6
01:45 1019 30.09 849 25.07 10.8 51.4 54 1.8 35.3
01:50 1019 30.09 849 25.07 10.8 51.4 55 2.1 35.8
01:55 1019 30.09 849 25.07 10.7 51.2 55 2 35.7
02:00 1019 30.09 849 25.07 10.6 51 55 2 35.6
02:05 1019 30.09 849 25.07 10.6 51.1 56 2.2 35.9
02:10 1019 30.09 849 25.07 10.5 50.8 56 2 35.6
02:15 1019 30.09 849 25.07 10.4 50.8 56 2.2 35.9
02:20 1019 30.09 849 25.07 10.3 50.6 57 2.1 35.8
02:25 1019 30.09 849 25.07 10.3 50.6 56 1.9 35.4
02:30 1019 30.09 849 25.07 10.5 50.9 55 1.9 35.5
02:35 1020 30.12 849 25.07 10.5 51 55 2 35.6
02:40 1019 30.09 849 25.07 10.6 51 56 2.1 35.8
02:45 1019 30.09 849 25.07 10.5 50.9 55 1.9 35.4
02:50 1019 30.09 849 25.07 10.6 51.1 55 2 35.7
02:55 1020 30.12 849 25.07 10.4 50.8 57 2.3 36.1
03:00 1020 30.12 849 25.07 10.3 50.5 57 2.1 35.8
03:05 1020 30.12 849 25.07 10.3 50.5 57 2.1 35.8
03:10 1019 30.09 849 25.07 10.4 50.8 56 2.1 35.7
03:15 1019 30.09 849 25.07 10.5 50.9 56 2.1 35.7
03:20 1019 30.09 849 25.07 10.5 50.9 56 2.1 35.7
03:25 1019 30.09 849 25.07 10.4 50.6 57 2.2 36
03:30 1020 30.12 849 25.07 10.2 50.3 58 2.3 36.2
03:35 1020 30.12 849 25.07 9.8 49.6 61 2.6 36.8
03:40 1020 30.12 849 25.07 9.4 48.9 62 2.6 36.7
03:45 1020 30.12 849 25.07 9.1 48.4 64 2.7 36.8
03:50 1020 30.12 849 25.07 8.9 47.9 65 2.6 36.7
03:55 1020 30.12 849 25.07 8.6 47.6 66 2.6 36.8
04:00 1020 30.12 849 25.07 8.4 47.1 67 2.7 36.8
04:05 1020 30.12 849 25.07 8.3 46.9 67 2.6 36.7
04:10 1020 30.12 849 25.07 8.2 46.8 68 2.7 36.8
04:15 1020 30.12 849 25.07 8.1 46.6 69 2.7 36.9
04:20 1020 30.12 849 25.07 7.9 46.3 69 2.7 36.9
04:25 1020 30.12 849 25.07 8 46.3 68 2.5 36.6
04:30 1020 30.12 849 25.07 7.8 46.1 69 2.4 36.4
04:35 1020 30.12 849 25.07 7 44.6 71 2 35.7
04:40 1020 30.12 849 25.07 6.7 44.1 71 1.8 35.3
04:45 1020 30.12 849 25.07 6.7 44.1 70 1.7 35
04:50 1020 30.12 849 25.07 6.9 44.5 69 1.6 34.9
04:55 1020 30.12 849 25.07 7.1 44.8 68 1.6 34.9
05:00 1020 30.12 849 25.07 7 44.7 69 1.7 35.1
05:05 1020 30.12 849 25.07 7.1 44.7 68 1.7 35
05:10 1020 30.12 849 25.07 7 44.5 69 1.7 35
05:15 1020 30.12 849 25.07 6.7 44.1 70 1.7 35
05:20 1020 30.12 849 25.07 6.3 43.4 71 1.6 34.8
05:25 1020 30.12 849 25.07 6 42.8 72 1.3 34.4
05:30 1020 30.12 849 25.07 6 42.9 71 1.3 34.3
05:35 1020 30.12 849 25.07 6.2 43.2 70 1.2 34.1
05:40 1020 30.12 849 25.07 6.3 43.4 70 1.2 34.2
05:45 1020 30.12 849 25.07 6.5 43.6 69 1.1 34
05:50 1020 30.12 849 25.07 6.8 44.3 67 1.2 34.1
05:55 1020 30.12 849 25.07 7.1 44.7 67 1.4 34.5
06:00 1020 30.12 849 25.07 7 44.7 68 1.5 34.7
06:05 1020 30.12 849 25.07 6.9 44.5 68 1.4 34.6
06:10 1020 30.12 849 25.07 7 44.6 68 1.5 34.8
06:15 1020 30.12 849 25.07 7 44.5 69 1.6 34.9
06:20 1020 30.12 849 25.07 6.7 44 69 1.5 34.7
06:25 1020 30.12 849 25.07 6.6 43.9 69 1.4 34.4
06:30 1020 30.12 849 25.07 6.7 44 69 1.3 34.4
06:35 1020 30.12 849 25.07 6.8 44.3 68 1.4 34.4
06:40 1020 30.12 849 25.07 6.9 44.4 68 1.4 34.5
06:45 1020 30.12 849 25.07 7 44.5 68 1.5 34.7
06:50 1020 30.12 849 25.07 7.1 44.8 68 1.6 34.8
06:55 1020 30.12 849 25.07 7.3 45.1 68 1.7 35.1
07:00 1020 30.12 850 25.1 7.4 45.2 67 1.6 34.9
07:05 1020 30.12 850 25.1 7.6 45.7 66 1.7 35
07:10 1020 30.12 850 25.1 8 46.3 64 1.5 34.8
07:15 1020 30.12 850 25.1 8.5 47.2 63 1.8 35.2
07:20 1020 30.12 850 25.1 8.7 47.7 62 1.9 35.3
07:25 1020 30.12 850 25.1 8.9 47.9 62 2.1 35.7
07:30 1020 30.12 850 25.1 9.3 48.8 61 2.2 35.9
07:35 1020 30.12 850 25.1 9.7 49.5 60 2.3 36.2
07:40 1020 30.12 850 25.1 9.6 49.3 59 2.1 35.7
07:45 1020 30.12 850 25.1 10.1 50.1 59 2.4 36.4
07:50 1020 30.12 850 25.1 10.3 50.5 56 2 35.6
07:55 1020 30.12 850 25.1 10.7 51.3 55 2.1 35.8
08:00 1020 30.12 850 25.1 10.8 51.4 56 2.3 36.2
08:05 1020 30.12 850 25.1 10.8 51.4 53 1.6 34.8
08:10 1020 30.12 850 25.1 11.1 52 53 1.9 35.4
08:15 1020 30.12 850 25.1 11.3 52.3 53 2.2 35.9
08:20 1020 30.12 850 25.1 11.8 53.3 52 2.4 36.3
08:25 1020 30.12 850 25.1 12.5 54.6 48 2 35.6
08:30 1020 30.12 850 25.1 12.3 54.1 50 2.1 35.9
08:35 1020 30.12 850 25.1 12.7 54.8 48 2.1 35.8
08:40 1020 30.12 850 25.1 13.1 55.6 47 2.2 36
08:45 1020 30.12 850 25.1 13.1 55.6 48 2.4 36.4
08:50 1020 30.12 850 25.1 13.3 55.9 45 1.8 35.3
08:55 1020 30.12 850 25.1 13.5 56.3 46 2.1 35.7
09:00 1020 30.12 850 25.1 14 57.1 45 2.3 36.2
09:05 1020 30.12 850 25.1 14.3 57.8 43 2.1 35.8
09:10 1020 30.12 850 25.1 14.4 57.9 46 2.9 37.2
09:15 1020 30.12 850 25.1 13.9 57 45 2.4 36.3
09:20 1020 30.12 850 25.1 14.2 57.5 44 2.2 35.9
09:25 1020 30.12 850 25.1 14.2 57.6 44 2.2 36
09:30 1020 30.12 850 25.1 15.1 59.1 42 2.2 35.9
09:35 1020 30.12 850 25.1 15.8 60.4 41 2.6 36.8
09:40 1020 30.12 850 25.1 16 60.8 40 2.5 36.5
09:45 1020 30.12 850 25.1 15.9 60.7 43 3.4 38.2
09:50 1020 30.12 850 25.1 14.9 58.8 46 3.6 38.4
09:55 1020 30.12 850 25.1 15.1 59.2 44 3.1 37.6
10:00 1020 30.12 850 25.1 15.5 60 43 3 37.4
10:05 1020 30.12 850 25.1 16.4 61.4 40 2.9 37.2
10:10 1020 30.12 849 25.07 16.8 62.3 40 3.2 37.8
10:15 1020 30.12 849 25.07 16.9 62.5 40 3.5 38.3
10:20 1020 30.12 849 25.07 17.2 63 38 2.9 37.2
10:25 1020 30.12 850 25.1 16.8 62.3 37 2.1 35.8
10:30 1020 30.12 850 25.1 15.9 60.6 39 2 35.7
10:35 1020 30.12 849 25.07 17.1 62.7 36 1.9 35.5
10:40 1020 30.12 849 25.07 17.8 64 35 2.4 36.3
10:45 1020 30.12 849 25.07 18.1 64.5 35 2.5 36.6
10:50 1020 30.12 849 25.07 18.2 64.7 34 2 35.6
10:55 1020 30.12 849 25.07 17.7 63.8 37 2.9 37.2
11:00 1020 30.12 849 25.07 17.7 63.8 33 1.2 34.2
11:05 1020 30.12 849 25.07 16.3 61.3 40 2.6 36.7
11:10 1020 30.12 849 25.07 17.3 63.2 34 1.3 34.3
11:15 1020 30.12 849 25.07 17.4 63.3 35 2 35.6
11:20 1020 30.12 849 25.07 18.1 64.6 34 2 35.6
11:25 1020 30.12 849 25.07 18.2 64.7 33 1.9 35.4
11:30 1020 30.12 849 25.07 17.8 64 32 1.2 34.1
11:35 1020 30.12 849 25.07 18.8 65.9 32 2 35.6
11:40 1020 30.12 849 25.07 18.9 65.9 32 1.8 35.2
11:45 1020 30.12 849 25.07 18.1 64.5 35 2.5 36.5
11:50 1020 30.12 849 25.07 17.8 64 33 1.6 34.9
11:55 1020 30.12 849 25.07 18.1 64.6 32 1.4 34.4
12:00 1020 30.12 849 25.07 18.7 65.7 32 1.7 35.1
12:05 1020 30.12 849 25.07 19.7 67.5 29 1.4 34.6
12:10 1020 30.12 849 25.07 19.8 67.6 31 2.1 35.8
12:15 1020 30.12 849 25.07 19 66.3 32 1.9 35.5
12:20 1020 30.12 849 25.07 18.9 66 31 1.7 35.1
12:25 1020 30.12 849 25.07 19.7 67.5 30 1.9 35.5
12:30 1020 30.12 849 25.07 20.5 68.8 29 1.9 35.4
12:35 1019 30.09 849 25.07 20 68 29 1.4 34.6
12:40 1019 30.09 849 25.07 19.5 67 29 1.3 34.3
12:45 1019 30.09 849 25.07 19.4 66.9 27 0.3 32.6
12:50 1019 30.09 849 25.07 19.2 66.6 28 0.4 32.7
12:55 1019 30.09 849 25.07 19.6 67.2 28 0.7 33.3
13:00 1019 30.09 849 25.07 19.8 67.7 27 0.2 32.4
13:05 1019 30.09 848 25.04 20.8 69.4 26 0.8 33.4
13:10 1019 30.09 849 25.07 20.6 69.1 26 0.6 33.1
13:15 1019 30.09 848 25.04 20.8 69.5 25 0.2 32.4
13:20 1019 30.09 848 25.04 20.1 68.3 26 0.3 32.5
13:25 1019 30.09 848 25.04 20.6 69.1 25 0.2 32.3
13:30 1019 30.09 848 25.04 21.2 70.2 25 0.6 33.2
13:35 1019 30.09 848 25.04 21 69.8 27 1.5 34.6
13:40 1019 30.09 848 25.04 20.4 68.6 25 -0 32
13:45 1019 30.09 848 25.04 21 69.7 24 -0.3 31.5
13:50 1019 30.09 848 25.04 21.4 70.5 23 -0.7 30.7
13:55 1019 30.09 848 25.04 20.4 68.8 24 -0.9 30.4
14:00 1019 30.09 848 25.04 20.6 69 24 -0.3 31.5
14:05 1019 30.09 848 25.04 21.5 70.7 22 -0.9 30.4
14:10 1019 30.09 848 25.04 22.3 72.1 20 -1.4 29.5
14:15 1019 30.09 848 25.04 22.2 71.9 21 -0.8 30.5
14:20 1019 30.09 848 25.04 21.8 71.2 21 -1.3 29.6
14:25 1019 30.09 848 25.04 22.3 72.1 21 -1.1 29.9
14:30 1019 30.09 848 25.04 22.2 71.9 20 -1.4 29.4
14:35 1019 30.09 848 25.04 22.4 72.2 21 -1.1 30.1
14:40 1018 30.06 848 25.04 20.3 68.5 22 -1.9 28.6
14:45 1018 30.06 848 25.04 20.3 68.5 21 -2.4 27.7
14:50 1018 30.06 848 25.04 21.2 70.2 17 -4.8 23.4
14:55 1018 30.06 848 25.04 22.4 72.4 20 -1.4 29.5
15:00 1018 30.06 848 25.04 22.6 72.6 19 -1.8 28.8
15:05 1018 30.06 847 25.01 22.7 72.9 19 -2 28.3
15:10 1018 30.06 847 25.01 22.3 72.1 20 -1.5 29.3
15:15 1018 30.06 847 25.01 22 71.7 21 -1.3 29.7
15:20 1018 30.06 847 25.01 21.6 70.9 21 -1.6 29.2
15:25 1018 30.06 847 25.01 21.3 70.4 21 -1.8 28.7
15:30 1018 30.06 847 25.01 21.8 71.3 21 -1.2 29.8
15:35 1018 30.06 847 25.01 22.5 72.5 20 -1.2 29.8
15:40 1018 30.06 847 25.01 22.2 72 20 -1.4 29.5
15:45 1018 30.06 847 25.01 21.6 70.8 22 -1 30.2
15:50 1018 30.06 847 25.01 22.2 71.9 21 -1.3 29.7
15:55 1018 30.06 847 25.01 23 73.4 21 -0.2 31.6
16:00 1018 30.06 847 25.01 23.4 74.1 19 -1 30.1
16:05 1018 30.06 847 25.01 22.4 72.4 20 -1.1 30
16:10 1018 30.06 847 25.01 23 73.4 20 -1 30.2
16:15 1018 30.06 847 25.01 22.6 72.6 20 -1 30.2
16:20 1018 30.06 847 25.01 23.2 73.7 20 -1.1 30
16:25 1018 30.06 847 25.01 22.7 72.9 22 0.3 32.5
16:30 1018 30.06 847 25.01 22.6 72.7 20 -1.5 29.3
16:35 1018 30.06 847 25.01 23.1 73.6 20 -0.7 30.7
16:40 1017 30.03 847 25.01 23 73.5 20 -1 30.2
16:45 1017 30.03 847 25.01 23.2 73.7 20 -0.7 30.7
16:50 1017 30.03 847 25.01 23.1 73.5 19 -1.3 29.7
16:55 1017 30.03 847 25.01 22.8 73 20 -0.9 30.4
17:00 1017 30.03 847 25.01 23.2 73.7 19 -1.5 29.2
17:05 1017 30.03 846 24.98 22.9 73.2 20 -1.4 29.5
17:10 1017 30.03 846 24.98 21.9 71.5 20 -1.8 28.7
17:15 1017 30.03 846 24.98 22.7 72.9 19 -1.6 29.1
17:20 1017 30.03 846 24.98 23.7 74.6 18 -1.8 28.8
17:25 1017 30.03 846 24.98 23.9 75 17 -2.6 27.2
17:30 1017 30.03 846 24.98 22.8 73 19 -1.7 28.9
17:35 1017 30.03 846 24.98 22 71.7 19 -2.1 28.2
17:40 1017 30.03 846 24.98 21.9 71.3 20 -1.8 28.8
17:45 1017 30.03 846 24.98 22.2 71.9 19 -2.2 28.1
17:50 1017 30.03 846 24.98 22.9 73.2 20 -0.8 30.5
17:55 1017 30.03 846 24.98 22.7 72.8 19 -1.7 28.9
18:00 1017 30.03 846 24.98 21.8 71.3 21 -1.6 29.1
18:05 1017 30.03 846 24.98 22.3 72.2 20 -1.4 29.5
18:10 1017 30.03 846 24.98 22.5 72.4 21 -0.9 30.4
18:15 1017 30.03 846 24.98 22.6 72.6 20 -1.5 29.3
18:20 1017 30.03 846 24.98 22.9 73.3 20 -0.9 30.3
18:25 1017 30.03 846 24.98 22.5 72.5 21 -0.9 30.3
18:30 1017 30.03 846 24.98 22.4 72.4 21 -1 30.1
18:35 1017 30.03 846 24.98 22.9 73.1 20 -0.8 30.6
18:40 1017 30.03 846 24.98 22.6 72.6 21 -0.8 30.5
18:45 1017 30.03 846 24.98 22.1 71.7 20 -1.4 29.4
18:50 1017 30.03 846 24.98 22.1 71.8 21 -1.2 29.9
18:55 1017 30.03 846 24.98 22.3 72.2 20 -1.7 28.9
19:00 1017 30.03 846 24.98 22.5 72.4 19 -2 28.5
19:05 1017 30.03 846 24.98 22.5 72.5 19 -1.9 28.6
19:10 1017 30.03 846 24.98 22.6 72.7 20 -1.3 29.7
19:15 1017 30.03 846 24.98 22.3 72.1 21 -1.1 30
19:20 1017 30.03 846 24.98 21.9 71.4 21 -1.5 29.3
19:25 1017 30.03 846 24.98 21.6 70.9 20 -1.8 28.8
19:30 1017 30.03 846 24.98 21.5 70.6 21 -1.7 28.9
19:35 1017 30.03 846 24.98 21.4 70.4 21 -1.7 29
19:40 1017 30.03 846 24.98 21.2 70.2 22 -1.2 29.8
19:45 1017 30.03 846 24.98 21.2 70.1 23 -0.9 30.4
19:50 1017 30.03 846 24.98 20.8 69.5 23 -0.8 30.6
19:55 1017 30.03 846 24.98 20.3 68.6 24 -0.8 30.5
20:00 1017 30.03 846 24.98 20.2 68.3 24 -1 30.2
20:05 1017 30.03 846 24.98 19.9 67.9 24 -1.1 30.1
20:10 1017 30.03 846 24.98 19.9 67.7 24 -1.2 29.9
20:15 1017 30.03 846 24.98 19.8 67.6 24 -1.1 30
20:20 1017 30.03 846 24.98 19.8 67.6 24 -1.3 29.7
20:25 1017 30.03 846 24.98 19.7 67.4 25 -1 30.3
20:30 1017 30.03 846 24.98 19.6 67.2 24 -1.1 30
20:35 1017 30.03 846 24.98 19.6 67.3 25 -1 30.3
20:40 1017 30.03 846 24.98 19.5 67.1 25 -0.8 30.5
20:45 1017 30.03 846 24.98 19.4 66.9 26 -0.4 31.2
20:50 1017 30.03 846 24.98 19.2 66.5 34 3.1 37.6
20:55 1017 30.03 846 24.98 17.3 63.2 39 3.5 38.2
21:00 1017 30.03 846 24.98 16.8 62.2 41 3.5 38.3
21:05 1017 30.03 846 24.98 16.3 61.4 42 3.6 38.4
21:10 1017 30.03 846 24.98 16.3 61.3 42 3.5 38.3
21:15 1017 30.03 846 24.98 16.3 61.4 42 3.6 38.5
21:20 1017 30.03 846 24.98 16 60.8 42 3.1 37.5
21:25 1017 30.03 846 24.98 16 60.8 43 3.5 38.2
21:30 1017 30.03 846 24.98 16.1 60.9 42 3.2 37.8
21:35 1017 30.03 846 24.98 15.5 59.9 48 4.6 40.3
21:40 1017 30.03 846 24.98 15 59 48 4.2 39.6
21:45 1017 30.03 846 24.98 14.7 58.5 48 4 39.3
21:50 1017 30.03 846 24.98 14.4 57.8 47 3.4 38.1
21:55 1017 30.03 846 24.98 14.3 57.8 48 3.5 38.2
22:00 1017 30.03 846 24.98 14.3 57.8 47 3.4 38
22:05 1017 30.03 846 24.98 14.3 57.8 47 3.2 37.8
22:10 1017 30.03 846 24.98 14.3 57.7 48 3.4 38.1
22:15 1017 30.03 846 24.98 14.1 57.3 48 3.2 37.8
22:20 1017 30.03 846 24.98 13.8 56.8 49 3.4 38.1
22:25 1017 30.03 846 24.98 13.6 56.4 49 3.2 37.7
22:30 1017 30.03 847 25.01 13.5 56.3 48 2.9 37.3
22:35 1017 30.03 847 25.01 13.6 56.4 48 2.8 37
22:40 1017 30.03 847 25.01 13.6 56.6 47 2.7 36.8
22:45 1017 30.03 847 25.01 13.7 56.6 47 2.5 36.5
22:50 1017 30.03 847 25.01 13.7 56.7 47 2.5 36.6
22:55 1017 30.03 847 25.01 13.7 56.7 46 2.4 36.2
23:00 1017 30.03 847 25.01 13.7 56.6 45 1.9 35.4
23:05 1017 30.03 847 25.01 13.7 56.7 45 2 35.6
23:10 1017 30.03 847 25.01 13.6 56.5 45 1.9 35.4
23:15 1017 30.03 847 25.01 13.4 56.2 46 2.2 36
23:20 1017 30.03 847 25.01 13.2 55.7 46 1.9 35.5
23:25 1017 30.03 847 25.01 13.1 55.6 47 2 35.6
23:30 1017 30.03 847 25.01 13 55.4 47 1.9 35.4
23:35 1018 30.06 847 25.01 13 55.4 46 1.7 35.1
23:40 1018 30.06 847 25.01 12.9 55.2 47 1.8 35.3
23:45 1018 30.06 847 25.01 12.8 55 47 1.7 35.1
23:50 1018 30.06 847 25.01 12.7 54.9 47 1.7 35.1
23:55 1018 30.06 847 25.01 12.7 54.9 47 1.7 35.1
24:00 1018 30.06 847 25.01 12.6 54.7 47 1.7 35.1